Time;durP1;ratioP1;P1;durP2;ratioP2;P2;SDS_P1;SDS_P2;PMS_P1;PMS_P2;Temp;Humidity;BMP_temperature;BMP_pressure;BME280_temperature;BME280_humidity;BME280_pressure;Samples;Min_cycle;Max_cycle;Signal;HPM_P1;HPM_P2
2022/05/23 00:00:18;;;;;;;4.30;1.80;;;;;;;9.84;65.30;100789.00;5014535;28;20145;-72
2022/05/23 00:02:46;;;;;;;10.05;2.22;;;;;;;9.86;65.15;100792.38;5014459;28;20136;-72
2022/05/23 00:05:12;;;;;;;8.40;2.13;;;;;;;9.91;65.23;100784.69;5014503;28;20557;-72
2022/05/23 00:07:42;;;;;;;8.43;2.90;;;;;;;9.90;65.11;100794.56;5014290;28;20149;-71
2022/05/23 00:10:10;;;;;;;6.70;2.72;;;;;;;9.84;65.01;100792.50;5014836;28;20081;-71
2022/05/23 00:12:37;;;;;;;4.47;2.35;;;;;;;9.85;65.24;100787.97;5014728;28;20502;-71
2022/05/23 00:15:04;;;;;;;6.82;2.03;;;;;;;9.87;65.35;100792.19;5014759;28;20141;-71
2022/05/23 00:17:31;;;;;;;9.02;3.10;;;;;;;9.87;65.49;100791.38;5013960;28;20088;-71
2022/05/23 00:19:57;;;;;;;8.80;2.25;;;;;;;9.85;65.29;100791.50;5014270;28;20081;-72
2022/05/23 00:22:24;;;;;;;4.63;2.35;;;;;;;9.77;65.70;100788.75;5014530;28;20415;-71
2022/05/23 00:24:51;;;;;;;5.60;2.08;;;;;;;9.71;66.33;100781.31;5014194;28;20141;-71
2022/05/23 00:27:22;;;;;;;4.95;2.20;;;;;;;9.71;66.24;100784.84;4997255;28;20046;-71
2022/05/23 00:29:51;;;;;;;7.13;2.67;;;;;;;9.66;66.32;100781.78;5014409;28;20045;-72
2022/05/23 00:35:18;;;;;;;5.20;2.60;;;;;;;9.75;66.17;100778.22;5014348;28;20152;-72
2022/05/23 00:37:51;;;;;;;11.88;2.60;;;;;;;9.60;66.63;100781.56;5014323;28;20057;-71
2022/05/23 00:40:35;;;;;;;6.05;2.10;;;;;;;9.56;66.95;100773.81;5014279;28;20449;-71
2022/05/23 00:43:14;;;;;;;4.60;2.30;;;;;;;9.54;67.06;100767.78;5014724;28;20053;-72
2022/05/23 00:45:59;;;;;;;9.35;3.17;;;;;;;9.46;67.56;100767.69;5014134;28;20103;-72
2022/05/23 00:48:28;;;;;;;6.45;2.45;;;;;;;9.44;67.48;100760.81;5013985;28;20046;-72
2022/05/23 00:50:58;;;;;;;9.90;3.30;;;;;;;9.39;67.77;100755.06;5014231;28;20544;-72
2022/05/23 00:53:30;;;;;;;7.55;3.20;;;;;;;9.29;68.03;100753.28;5014110;28;20501;-71
2022/05/23 00:55:56;;;;;;;;;;;;;;;9.20;68.70;100756.03;5014363;28;20046;-72
2022/05/23 00:58:28;;;;;;;4.13;2.55;;;;;;;9.21;68.46;100758.53;5013558;28;20016;-72
2022/05/23 01:00:58;;;;;;;8.15;2.90;;;;;;;9.28;68.33;100756.13;5014130;28;20133;-72
2022/05/23 01:03:24;;;;;;;6.45;3.03;;;;;;;9.30;68.30;100748.78;5014216;28;20085;-71
2022/05/23 01:09:38;;;;;;;9.45;2.80;;;;;;;9.34;67.93;100734.13;5013630;28;20100;-72
2022/05/23 01:12:05;;;;;;;6.47;2.70;;;;;;;9.26;68.30;100725.97;5014000;28;20089;-72
2022/05/23 01:14:50;;;;;;;6.65;2.58;;;;;;;9.14;68.62;100716.47;5013978;28;20129;-72
2022/05/23 01:17:18;;;;;;;6.53;2.53;;;;;;;9.11;68.85;100712.25;5014255;28;20049;-72
2022/05/23 01:19:45;;;;;;;7.72;2.63;;;;;;;9.06;68.93;100711.88;5014141;28;20409;-72
2022/05/23 01:22:26;;;;;;;7.15;3.50;;;;;;;9.04;68.89;100712.00;5014830;28;20073;-72
2022/05/23 01:25:16;;;;;;;6.15;2.60;;;;;;;9.02;69.09;100714.00;5014094;28;20093;-72
2022/05/23 01:27:44;;;;;;;11.05;3.00;;;;;;;9.04;69.24;100721.88;5013660;28;20129;-72
2022/05/23 01:30:11;;;;;;;7.30;2.55;;;;;;;9.04;69.07;100717.38;5016850;28;20097;-72
2022/05/23 01:32:38;;;;;;;9.23;3.17;;;;;;;8.98;69.30;100715.28;5017669;28;20085;-72
2022/05/23 01:35:09;;;;;;;6.30;3.05;;;;;;;8.87;69.99;100717.34;5018299;28;20073;-71
2022/05/23 01:37:36;;;;;;;9.95;4.00;;;;;;;8.87;70.07;100709.31;5017087;28;20092;-73
2022/05/23 01:40:05;;;;;;;7.70;3.10;;;;;;;8.88;70.15;100706.47;5017876;28;20076;-72
2022/05/23 01:42:32;;;;;;;6.15;3.05;;;;;;;8.87;70.18;100704.78;5017047;28;20100;-72
2022/05/23 01:44:58;;;;;;;6.00;3.20;;;;;;;8.87;70.16;100702.13;5017903;28;20085;-72
2022/05/23 01:47:25;;;;;;;6.13;3.25;;;;;;;8.86;70.16;100703.13;5017821;28;20042;-72
2022/05/23 01:49:52;;;;;;;7.22;2.88;;;;;;;8.89;70.16;100699.31;5017122;28;20124;-72
2022/05/23 01:52:18;;;;;;;7.63;3.42;;;;;;;8.95;69.93;100699.53;5016804;28;20050;-72
2022/05/23 01:54:45;;;;;;;6.15;3.03;;;;;;;8.94;69.98;100705.88;5016989;28;20141;-72
2022/05/23 01:57:12;;;;;;;7.07;3.08;;;;;;;8.96;69.89;100698.56;5016810;28;20109;-71
2022/05/23 02:02:24;;;;;;;5.97;3.05;;;;;;;9.03;69.81;100699.63;5016907;28;20458;-72
2022/05/23 02:04:54;;;;;;;7.32;3.10;;;;;;;8.97;70.00;100702.91;5016633;28;20498;-71
2022/05/23 02:07:21;;;;;;;6.15;3.33;;;;;;;8.98;70.04;100699.22;5016475;28;20426;-71
2022/05/23 02:09:48;;;;;;;7.25;3.25;;;;;;;9.02;69.70;100695.28;5016297;28;20096;-71
2022/05/23 02:12:17;;;;;;;7.90;3.42;;;;;;;9.07;69.68;100697.50;5016289;28;20141;-71
2022/05/23 02:14:46;;;;;;;11.70;3.80;;;;;;;9.07;69.53;100695.66;5016663;28;20084;-71
2022/05/23 02:17:13;;;;;;;9.82;3.42;;;;;;;8.97;69.88;100694.03;5016380;28;20141;-73
2022/05/23 02:19:39;;;;;;;7.43;3.53;;;;;;;8.97;70.14;100692.19;5016570;28;20081;-71
2022/05/23 02:22:06;;;;;;;6.97;3.45;;;;;;;8.94;70.01;100691.66;5016645;28;20062;-71
2022/05/23 02:24:32;;;;;;;9.77;3.53;;;;;;;8.92;70.00;100691.81;5016444;28;20129;-71
2022/05/23 02:27:00;;;;;;;6.20;3.40;;;;;;;8.91;70.15;100686.59;5015924;28;20054;-71
2022/05/23 02:29:27;;;;;;;11.23;3.63;;;;;;;8.79;70.70;100691.34;5016137;28;20082;-72
2022/05/23 02:31:54;;;;;;;6.85;3.72;;;;;;;8.67;71.14;100687.16;5015980;28;20128;-72
2022/05/23 02:34:20;;;;;;;7.28;3.88;;;;;;;8.66;71.17;100683.66;5015999;28;20057;-72
2022/05/23 02:36:47;;;;;;;13.50;3.58;;;;;;;8.61;71.61;100680.59;5015990;28;20056;-72
2022/05/23 02:39:14;;;;;;;9.15;4.07;;;;;;;8.51;72.00;100679.78;5016200;28;20133;-72
2022/05/23 02:41:41;;;;;;;7.43;3.85;;;;;;;8.53;72.00;100677.78;5015247;28;20058;-72
2022/05/23 02:44:07;;;;;;;14.15;4.07;;;;;;;8.49;72.08;100671.06;5016341;28;20128;-71
2022/05/23 02:46:34;;;;;;;8.10;4.25;;;;;;;8.46;72.23;100682.88;5015772;28;20144;-72
2022/05/23 02:49:01;;;;;;;7.75;4.28;;;;;;;8.43;72.45;100688.53;5016302;28;20050;-72
2022/05/23 02:51:28;;;;;;;12.73;4.30;;;;;;;8.43;72.46;100682.34;5015780;28;20185;-71
2022/05/23 02:53:54;;;;;;;11.77;4.22;;;;;;;8.39;72.72;100687.16;5015968;28;20088;-72
2022/05/23 02:56:21;;;;;;;9.30;3.95;;;;;;;8.33;72.76;100688.59;5016538;28;20086;-73
2022/05/23 02:58:47;;;;;;;7.95;4.22;;;;;;;8.47;72.62;100694.41;5015587;28;20133;-72
2022/05/23 03:01:14;;;;;;;13.38;4.38;;;;;;;8.48;72.27;100691.63;5015984;28;20053;-72
2022/05/23 03:03:41;;;;;;;12.27;4.30;;;;;;;8.46;72.39;100692.75;5015826;28;20498;-72
2022/05/23 03:06:08;;;;;;;11.68;4.13;;;;;;;8.42;72.72;100680.66;5015987;28;20505;-71
2022/05/23 03:08:36;;;;;;;11.95;4.30;;;;;;;8.32;72.88;100681.53;5015696;28;20077;-71
2022/05/23 03:11:05;;;;;;;12.95;4.25;;;;;;;8.41;72.83;100689.69;5016268;28;20146;-72
2022/05/23 03:13:32;;;;;;;11.75;4.38;;;;;;;8.44;72.68;100684.88;5015391;28;20225;-71
2022/05/23 03:15:59;;;;;;;11.75;4.75;;;;;;;8.47;72.61;100681.91;5015312;28;20093;-72
2022/05/23 03:18:26;;;;;;;11.32;4.38;;;;;;;8.45;72.58;100681.22;5015409;28;20046;-71
2022/05/23 03:26:58;;;;;;;14.98;4.32;;;;;;;8.45;72.54;100678.53;5015376;28;20049;-71
2022/05/23 03:26:58;;;;;;;8.82;4.10;;;;;;;8.47;72.40;100684.59;5015257;28;20054;-72
2022/05/23 03:29:25;;;;;;;5.97;4.25;;;;;;;8.53;72.06;100683.97;5015238;28;20084;-72
2022/05/23 03:31:52;;;;;;;9.85;4.50;;;;;;;8.56;72.13;100678.34;5016221;28;20427;-72
2022/05/23 03:34:18;;;;;;;7.10;4.03;;;;;;;8.58;72.09;100678.22;5015449;28;20073;-73
2022/05/23 03:36:44;;;;;;;13.95;4.07;;;;;;;8.67;71.70;100684.50;5015757;28;20149;-71
2022/05/23 03:39:11;;;;;;;10.32;4.22;;;;;;;8.68;71.64;100680.81;5016307;28;20443;-72
2022/05/23 03:41:38;;;;;;;11.32;4.20;;;;;;;8.74;71.56;100682.91;5015851;28;20136;-71
2022/05/23 03:44:07;;;;;;;13.05;4.85;;;;;;;8.71;71.39;100676.03;5015423;28;20153;-71
2022/05/23 03:46:35;;;;;;;11.70;4.55;;;;;;;8.78;71.41;100678.94;5015314;28;20453;-71
2022/05/23 03:49:03;;;;;;;11.32;4.78;;;;;;;8.87;70.92;100672.69;5016176;28;20133;-72
2022/05/23 03:51:29;;;;;;;8.35;4.78;;;;;;;8.87;70.65;100677.19;5015573;28;20117;-72
2022/05/23 03:53:56;;;;;;;8.05;4.45;;;;;;;8.86;70.66;100673.69;5013849;28;20136;-72
2022/05/23 03:56:22;;;;;;;13.57;5.10;;;;;;;8.85;70.90;100677.38;5014795;28;20097;-73
2022/05/23 03:58:49;;;;;;;11.93;4.47;;;;;;;8.85;70.80;100672.00;5014611;28;20081;-72
2022/05/23 04:01:18;;;;;;;9.90;4.88;;;;;;;8.84;70.89;100672.97;5015213;28;20159;-72
2022/05/23 04:03:45;;;;;;;11.95;4.75;;;;;;;8.82;70.72;100672.31;5014972;28;20072;-72
2022/05/23 04:06:11;;;;;;;11.13;5.20;;;;;;;8.88;70.69;100674.38;5014995;28;20116;-72
2022/05/23 04:08:38;;;;;;;8.48;5.10;;;;;;;8.85;70.77;100672.00;5014878;28;20133;-71
2022/05/23 04:11:06;;;;;;;13.65;4.68;;;;;;;8.88;70.95;100682.38;4997683;28;20457;-72
2022/05/23 04:13:33;;;;;;;11.68;4.85;;;;;;;8.95;70.46;100678.13;5014873;28;20141;-71
2022/05/23 04:16:00;;;;;;;18.52;5.75;;;;;;;9.03;70.38;100675.56;5014774;28;20129;-72
2022/05/23 04:18:26;;;;;;;10.40;4.55;;;;;;;9.08;70.16;100686.63;5014927;28;20124;-72
2022/05/23 04:20:53;;;;;;;10.38;4.75;;;;;;;9.15;69.73;100684.19;5014948;28;20092;-71
2022/05/23 04:23:19;;;;;;;11.57;5.20;;;;;;;9.20;69.86;100686.44;5014409;28;20054;-71
2022/05/23 04:25:48;;;;;;;14.77;4.95;;;;;;;9.18;69.86;100689.25;5014994;28;20138;-71
2022/05/23 04:28:16;;;;;;;9.55;5.03;;;;;;;9.27;69.61;100690.22;5014312;28;20164;-72
2022/05/23 04:30:43;;;;;;;15.77;4.65;;;;;;;9.32;69.34;100682.53;5014870;28;20077;-72
2022/05/23 04:35:55;;;;;;;11.55;4.45;;;;;;;9.29;69.13;100678.34;5014823;28;20473;-72
2022/05/23 04:38:22;;;;;;;10.43;4.50;;;;;;;9.30;69.78;100681.84;5014404;28;20052;-72
2022/05/23 04:40:48;;;;;;;10.05;4.63;;;;;;;9.46;69.00;100684.69;5014702;28;20536;-72
2022/05/23 04:43:15;;;;;;;6.53;4.50;;;;;;;9.51;68.67;100681.56;5014424;28;20517;-72
2022/05/23 04:45:42;;;;;;;14.57;5.15;;;;;;;9.56;68.39;100673.88;5014977;28;20450;-72
2022/05/23 04:50:54;;;;;;;14.13;6.28;;;;;;;9.63;68.38;100671.44;5014845;28;20601;-71
2022/05/23 04:53:21;;;;;;;15.40;5.18;;;;;;;9.67;68.03;100678.16;5013941;28;20085;-71
2022/05/23 04:55:47;;;;;;;10.27;4.63;;;;;;;9.75;67.75;100670.19;5014126;28;20145;-72
2022/05/23 04:58:14;;;;;;;11.00;4.38;;;;;;;9.82;67.25;100660.53;5013997;28;20459;-71
2022/05/23 05:00:42;;;;;;;10.38;4.28;;;;;;;9.83;67.39;100664.91;5014137;28;20096;-72
2022/05/23 05:03:14;;;;;;;8.80;4.20;;;;;;;9.83;67.03;100656.84;5013951;28;20056;-71
2022/05/23 05:05:40;;;;;;;13.57;4.78;;;;;;;9.88;66.50;100662.56;5018232;28;20144;-71
2022/05/23 05:08:07;;;;;;;12.20;4.32;;;;;;;9.93;66.47;100659.44;5018142;28;20136;-71
2022/05/23 05:10:34;;;;;;;15.90;4.60;;;;;;;9.99;66.53;100651.63;5018072;28;20088;-72
2022/05/23 05:13:00;;;;;;;6.45;4.00;;;;;;;9.93;66.34;100652.25;5018365;28;20469;-71
2022/05/23 05:15:28;;;;;;;8.90;3.67;;;;;;;9.98;66.20;100647.22;5017727;28;20145;-71
2022/05/23 05:17:55;;;;;;;9.18;3.40;;;;;;;9.99;65.86;100648.94;5017718;28;20050;-71
2022/05/23 05:20:23;;;;;;;9.00;3.95;;;;;;;10.00;65.49;100637.19;5017602;28;20046;-71
2022/05/23 05:22:51;;;;;;;10.77;3.92;;;;;;;10.05;65.15;100636.72;5018400;28;20486;-72
2022/05/23 05:25:19;;;;;;;8.70;3.60;;;;;;;10.06;65.05;100634.88;5017877;28;20085;-72
2022/05/23 05:27:46;;;;;;;11.25;3.92;;;;;;;10.07;65.18;100631.22;5017294;28;20148;-71
2022/05/23 05:30:19;;;;;;;11.32;3.38;;;;;;;9.97;64.42;100632.16;5017223;28;20526;-71
2022/05/23 05:33:05;;;;;;;11.30;2.92;;;;;;;10.15;63.99;100626.72;5017239;28;20082;-71
2022/05/23 05:35:56;;;;;;;7.47;3.45;;;;;;;10.18;63.67;100622.88;5017118;28;20084;-71
2022/05/23 05:38:29;;;;;;;7.65;2.97;;;;;;;10.31;63.38;100622.47;5016774;28;20062;-71
2022/05/23 05:41:03;;;;;;;10.32;3.28;;;;;;;10.27;63.45;100621.94;5016554;28;20137;-71
2022/05/23 05:43:35;;;;;;;8.82;3.15;;;;;;;10.35;63.15;100621.97;5017541;28;20441;-71
2022/05/23 05:46:10;;;;;;;8.30;3.10;;;;;;;10.37;63.04;100617.25;5016769;28;20089;-71
2022/05/23 05:48:40;;;;;;;15.55;3.67;;;;;;;10.42;62.74;100614.94;5017117;28;20050;-71
2022/05/23 05:51:09;;;;;;;11.40;2.97;;;;;;;10.49;62.23;100615.97;5015981;28;20116;-71
2022/05/23 05:53:36;;;;;;;12.50;2.97;;;;;;;10.61;62.13;100607.66;5017014;28;20146;-71
2022/05/23 05:56:04;;;;;;;9.70;3.17;;;;;;;10.72;61.89;100618.06;5017906;28;20054;-73
2022/05/23 05:58:33;;;;;;;7.00;3.25;;;;;;;10.76;61.30;100621.31;5017980;28;20042;-73
2022/05/23 06:00:59;;;;;;;17.42;3.75;;;;;;;10.78;61.50;100617.44;5018625;28;20073;-73
2022/05/23 06:03:26;;;;;;;15.05;3.55;;;;;;;10.83;61.27;100612.44;5018465;28;20081;-73
2022/05/23 06:11:26;;;;;;;6.50;2.50;;;;;;;11.03;60.13;100591.47;5018091;28;20049;-73
2022/05/23 06:14:03;;;;;;;9.93;2.83;;;;;;;11.10;59.55;100597.00;5018123;28;20088;-73
2022/05/23 06:16:36;;;;;;;9.93;2.78;;;;;;;11.17;59.09;100580.09;5017175;28;20058;-73
2022/05/23 06:19:03;;;;;;;8.65;2.38;;;;;;;11.22;58.82;100585.78;5017344;28;20133;-72
2022/05/23 06:21:30;;;;;;;9.10;2.42;;;;;;;11.29;58.34;100572.53;5017218;28;20140;-73
2022/05/23 06:23:57;;;;;;;10.95;2.92;;;;;;;11.42;58.48;100572.03;5018277;28;20053;-73
2022/05/23 06:26:30;;;;;;;7.55;2.83;;;;;;;11.53;58.22;100573.50;5018375;28;20108;-73
2022/05/23 06:28:57;;;;;;;9.43;2.42;;;;;;;11.58;57.30;100566.59;5018256;28;20084;-73
2022/05/23 06:31:24;;;;;;;7.95;2.30;;;;;;;11.56;57.73;100565.13;5018379;28;20132;-73
2022/05/23 06:33:50;;;;;;;6.47;2.67;;;;;;;11.71;56.67;100557.22;5017988;28;20485;-73
2022/05/23 06:36:18;;;;;;;7.70;2.35;;;;;;;11.79;56.36;100552.66;5018469;28;20058;-73
2022/05/23 06:38:45;;;;;;;4.57;1.88;;;;;;;11.88;55.75;100554.31;5018146;28;20050;-73
2022/05/23 06:41:13;;;;;;;8.95;2.15;;;;;;;12.20;54.67;100552.50;5017475;28;20081;-73
2022/05/23 06:43:42;;;;;;;6.35;2.15;;;;;;;12.29;53.56;100553.31;5017104;28;20077;-73
2022/05/23 06:46:11;;;;;;;6.28;1.90;;;;;;;12.38;53.07;100546.88;5017225;28;20053;-73
2022/05/23 06:48:38;;;;;;;4.80;2.15;;;;;;;12.75;51.99;100546.16;5017297;28;20061;-73
2022/05/23 06:51:05;;;;;;;4.30;1.83;;;;;;;12.96;51.90;100542.81;5017722;28;20069;-72
2022/05/23 06:53:35;;;;;;;4.18;1.70;;;;;;;13.16;50.58;100553.09;5016895;28;20117;-73
2022/05/23 06:56:03;;;;;;;6.40;1.90;;;;;;;13.08;50.71;100545.94;5016339;28;20053;-73
2022/05/23 06:58:32;;;;;;;5.65;1.77;;;;;;;13.61;49.69;100537.88;5016469;28;20054;-73
2022/05/23 07:00:58;;;;;;;5.75;2.20;;;;;;;13.99;48.61;100542.16;5016297;28;20140;-73
2022/05/23 07:03:25;;;;;;;7.43;2.00;;;;;;;14.23;47.77;100538.34;5016439;28;20482;-73
2022/05/23 07:14:07;;;;;;;6.53;1.98;;;;;;;14.80;45.69;100522.38;5015922;28;20098;-73
2022/05/23 07:16:34;;;;;;;8.02;1.98;;;;;;;15.26;44.73;100528.19;5015745;28;20136;-73
2022/05/23 07:19:04;;;;;;;9.25;2.08;;;;;;;15.67;44.17;100516.63;5015890;28;20119;-72
2022/05/23 07:21:31;;;;;;;3.63;1.60;;;;;;;16.14;42.49;100526.69;5015545;28;20054;-72
2022/05/23 07:24:00;;;;;;;3.13;1.48;;;;;;;16.37;42.17;100522.81;5015704;28;20096;-73
2022/05/23 07:26:27;;;;;;;7.70;2.00;;;;;;;16.46;42.07;100521.56;5015369;28;20125;-73
2022/05/23 07:28:54;;;;;;;9.43;1.75;;;;;;;16.70;41.18;100516.69;5015381;28;20142;-74
2022/05/23 07:31:21;;;;;;;6.80;1.70;;;;;;;16.90;40.81;100517.53;5015671;28;20056;-72
2022/05/23 07:33:48;;;;;;;6.10;1.70;;;;;;;17.23;39.96;100512.09;5015462;28;20505;-74
2022/05/23 07:36:15;;;;;;;5.05;1.50;;;;;;;17.20;39.81;100507.13;5016352;28;20077;-73
2022/05/23 07:38:42;;;;;;;3.08;1.50;;;;;;;16.95;40.05;100506.06;5015950;28;20089;-73
2022/05/23 07:41:10;;;;;;;6.07;1.55;;;;;;;16.93;40.25;100500.03;5016567;28;20490;-73
2022/05/23 07:43:39;;;;;;;3.78;1.48;;;;;;;16.18;40.70;100487.34;5016092;28;20180;-73
2022/05/23 07:46:12;;;;;;;3.78;1.48;;;;;;;16.72;39.67;100482.09;5016227;28;20074;-73
2022/05/23 07:48:42;;;;;;;5.53;1.60;;;;;;;16.97;39.74;100488.56;5017580;28;20410;-73
2022/05/23 07:51:10;;;;;;;5.68;1.77;;;;;;;16.63;40.16;100478.75;5016499;28;20462;-73
2022/05/23 08:01:58;;;;;;;6.57;1.58;;;;;;;17.86;36.61;100476.38;5014902;28;20172;-71
2022/05/23 08:04:25;;;;;;;7.18;2.22;;;;;;;18.18;35.85;100468.31;5015408;28;20133;-72
2022/05/23 08:06:52;;;;;;;4.70;1.42;;;;;;;17.59;36.77;100473.72;5014312;28;20050;-72
2022/05/23 08:09:19;;;;;;;6.80;1.63;;;;;;;17.84;36.67;100470.31;5015238;28;20046;-73
2022/05/23 08:11:50;;;;;;;10.48;1.90;;;;;;;18.16;36.65;100475.84;5015375;28;20125;-73
2022/05/23 08:14:16;;;;;;;5.05;1.17;;;;;;;17.85;35.75;100466.53;5015426;28;20064;-72
2022/05/23 08:16:43;;;;;;;4.30;1.42;;;;;;;17.81;36.14;100466.13;5014469;28;20100;-72
2022/05/23 08:19:09;;;;;;;9.98;1.63;;;;;;;17.74;36.00;100448.22;5014444;28;20089;-72
2022/05/23 08:21:44;;;;;;;5.57;1.73;;;;;;;17.87;35.99;100453.59;5015537;28;20540;-73
2022/05/23 08:24:10;;;;;;;6.90;1.50;;;;;;;18.30;34.92;100447.56;5014886;28;20145;-72
2022/05/23 08:26:37;;;;;;;5.82;1.52;;;;;;;18.52;34.30;100446.19;5014955;28;20096;-72
2022/05/23 08:29:03;;;;;;;8.25;2.05;;;;;;;18.49;34.31;100441.19;5014328;28;20138;-72
2022/05/23 08:31:30;;;;;;;10.32;1.67;;;;;;;18.65;34.06;100455.28;5014717;28;20049;-74
2022/05/23 08:33:57;;;;;;;4.18;1.30;;;;;;;18.31;34.14;100458.22;4981041;28;20045;-73
2022/05/23 08:36:23;;;;;;;8.05;1.67;;;;;;;18.50;33.88;100448.25;5014964;28;20089;-74
2022/05/23 08:38:50;;;;;;;6.03;1.60;;;;;;;18.80;33.91;100447.66;5013822;28;20150;-72
2022/05/23 08:41:33;;;;;;;5.85;1.50;;;;;;;19.09;32.55;100442.63;5014166;28;20148;-72
2022/05/23 08:44:15;;;;;;;10.18;1.80;;;;;;;19.26;32.14;100451.84;5014522;28;20127;-72
2022/05/23 08:47:00;;;;;;;4.18;1.30;;;;;;;18.82;32.44;100455.56;5014386;28;20077;-73
2022/05/23 08:49:45;;;;;;;3.97;1.48;;;;;;;18.85;32.79;100455.94;5014991;28;20153;-73
2022/05/23 08:52:20;;;;;;;7.55;1.48;;;;;;;19.29;32.07;100453.31;5015302;28;20085;-73
2022/05/23 08:54:54;;;;;;;6.18;1.40;;;;;;;18.93;32.22;100447.56;5014664;28;20145;-73
2022/05/23 08:57:32;;;;;;;7.57;1.55;;;;;;;19.78;31.56;100437.94;5014726;28;20073;-73
2022/05/23 09:00:04;;;;;;;10.13;1.70;;;;;;;19.47;31.51;100440.53;5014587;28;20137;-74
2022/05/23 09:02:53;;;;;;;8.77;1.73;;;;;;;19.39;31.59;100435.41;5014411;28;20133;-73
2022/05/23 09:05:28;;;;;;;9.27;1.35;;;;;;;18.65;32.34;100426.22;5015050;28;20054;-73
2022/05/23 09:08:20;;;;;;;5.13;1.30;;;;;;;17.99;32.94;100419.28;5014942;28;20405;-72
2022/05/23 09:10:55;;;;;;;4.80;1.45;;;;;;;18.05;32.82;100404.84;5014556;28;20466;-72
2022/05/23 09:13:23;;;;;;;5.22;1.27;;;;;;;18.66;32.45;100408.88;5014403;28;20077;-74
2022/05/23 09:15:52;;;;;;;6.38;1.48;;;;;;;18.77;32.46;100408.16;5015561;28;20050;-73
2022/05/23 09:18:26;;;;;;;3.00;1.20;;;;;;;18.61;32.80;100403.25;5014677;28;20081;-74
2022/05/23 09:20:59;;;;;;;5.57;1.40;;;;;;;18.81;32.78;100397.66;5014377;28;20046;-73
2022/05/23 09:23:33;;;;;;;4.85;1.40;;;;;;;18.66;33.02;100397.19;5013977;28;20046;-73
2022/05/23 09:26:03;;;;;;;3.78;1.30;;;;;;;18.65;32.59;100401.75;5014338;28;20049;-72
2022/05/23 09:28:40;;;;;;;4.25;1.40;;;;;;;18.88;32.46;100400.31;5014344;28;20058;-73
2022/05/23 09:31:24;;;;;;;6.90;1.80;;;;;;;18.84;31.84;100388.25;5014325;28;20052;-73
2022/05/23 09:33:54;;;;;;;5.75;1.58;;;;;;;18.84;32.16;100388.25;5014128;28;20050;-72
2022/05/23 09:36:30;;;;;;;3.88;1.58;;;;;;;18.73;32.81;100384.38;5013845;28;20141;-72
2022/05/23 09:39:05;;;;;;;4.55;1.30;;;;;;;18.55;33.26;100385.97;5014059;28;20438;-74
2022/05/23 09:47:44;;;;;;;5.57;1.50;;;;;;;19.01;32.31;100368.44;5014283;28;20136;-71
2022/05/23 09:50:35;;;;;;;3.75;1.08;;;;;;;18.53;33.03;100366.34;5015835;28;20050;-72
2022/05/23 09:53:15;;;;;;;3.03;1.30;;;;;;;18.79;33.09;100364.44;5017672;28;20391;-71
2022/05/23 09:55:41;;;;;;;6.68;1.63;;;;;;;18.25;33.26;100357.78;5018069;28;20096;-72
2022/05/23 09:58:11;;;;;;;6.72;1.40;;;;;;;18.31;33.59;100351.47;5018309;28;20054;-73
2022/05/23 10:00:54;;;;;;;6.35;1.27;;;;;;;18.41;32.84;100356.41;5017271;28;20092;-73
2022/05/23 10:03:23;;;;;;;3.50;1.27;;;;;;;18.59;32.11;100350.22;5017680;28;20050;-73
2022/05/23 10:06:03;;;;;;;5.18;1.30;;;;;;;18.77;31.69;100347.53;5018414;28;20058;-73
2022/05/23 10:08:37;;;;;;;4.60;1.53;;;;;;;19.41;31.52;100339.97;5017473;28;20129;-73
2022/05/23 10:11:18;;;;;;;4.22;1.75;;;;;;;19.22;31.91;100344.59;5017858;28;20285;-73
2022/05/23 10:13:50;;;;;;;5.13;1.30;;;;;;;18.66;32.14;100340.94;5017372;28;20100;-73
2022/05/23 10:16:26;;;;;;;4.63;1.50;;;;;;;19.17;31.48;100339.84;5016982;28;20137;-74
2022/05/23 10:19:03;;;;;;;4.80;1.20;;;;;;;19.29;31.13;100331.75;5017690;28;20058;-73
2022/05/23 10:22:07;;;;;;;6.05;1.63;;;;;;;19.33;31.04;100327.50;5017011;28;20046;-74
2022/05/23 10:24:35;;;;;;;3.50;1.10;;;;;;;19.40;31.19;100320.09;5016510;28;20469;-72
2022/05/23 10:27:08;;;;;;;4.55;1.38;;;;;;;19.43;31.34;100316.91;5016578;28;20058;-74
2022/05/23 10:29:53;;;;;;;6.65;1.60;;;;;;;19.35;31.84;100319.13;5016564;28;20085;-73
2022/05/23 10:32:32;;;;;;;6.63;1.30;;;;;;;19.10;31.64;100316.47;5017191;28;20057;-73
2022/05/23 10:35:09;;;;;;;6.18;1.00;;;;;;;19.75;30.30;100305.84;5016854;28;20140;-74
2022/05/23 10:37:40;;;;;;;2.95;1.30;;;;;;;19.05;30.52;100313.63;5016795;28;20058;-73
2022/05/23 10:43:15;;;;;;;8.52;1.73;;;;;;;19.61;29.61;100297.00;5016053;28;20108;-72
2022/05/23 10:45:56;;;;;;;6.25;1.38;;;;;;;19.28;30.56;100292.00;5016183;28;20100;-72
2022/05/23 10:48:34;;;;;;;5.05;1.40;;;;;;;19.01;30.11;100288.78;5017535;28;20089;-71
2022/05/23 10:51:11;;;;;;;8.27;1.13;;;;;;;18.63;31.19;100288.94;5016224;28;20053;-72
2022/05/23 10:54:19;;;;;;;4.95;1.40;;;;;;;18.97;30.91;100291.13;5015805;28;20054;-71
2022/05/23 10:56:51;;;;;;;3.53;1.17;;;;;;;18.97;30.76;100271.25;5016088;28;20109;-72
2022/05/23 10:59:36;;;;;;;4.32;1.10;;;;;;;18.78;31.41;100278.53;4998620;28;20136;-73
2022/05/23 11:02:19;;;;;;;9.27;1.65;;;;;;;18.96;31.27;100277.75;5016069;28;20516;-72
2022/05/23 11:05:11;;;;;;;7.07;1.30;;;;;;;19.06;30.79;100266.34;5016791;28;20488;-72
2022/05/23 11:07:56;;;;;;;;;;;;;;;18.49;31.79;100252.94;5017486;28;20417;-72
2022/05/23 11:10:35;;;;;;;4.13;1.25;;;;;;;18.55;32.02;100255.56;5016304;28;20003;-71
2022/05/23 11:13:29;;;;;;;3.92;1.50;;;;;;;18.00;32.85;100251.88;5016105;28;20061;-72
2022/05/23 11:16:01;;;;;;;6.70;1.50;;;;;;;18.36;31.74;100251.16;5015679;28;20092;-72
2022/05/23 11:18:59;;;;;;;3.72;0.93;;;;;;;18.34;31.66;100242.38;5015786;28;20108;-71
2022/05/23 11:21:56;;;;;;;4.95;1.30;;;;;;;18.19;32.00;100234.59;5011846;28;20137;-72
2022/05/23 11:24:31;;;;;;;9.35;1.58;;;;;;;17.81;32.75;100211.06;5015798;28;20573;-73
2022/05/23 11:35:31;;;;;;;9.45;1.52;;;;;;;18.23;32.35;100210.53;5015727;28;20140;-71
2022/05/23 11:38:01;;;;;;;4.53;1.35;;;;;;;18.04;32.76;100215.91;5015192;28;20054;-72
2022/05/23 11:40:30;;;;;;;4.75;1.33;;;;;;;18.14;33.08;100218.13;5015136;28;20050;-72
2022/05/23 11:43:02;;;;;;;4.30;1.55;;;;;;;18.28;32.89;100210.72;5015479;28;20091;-73
2022/05/23 11:48:34;;;;;;;6.60;1.35;;;;;;;18.74;32.97;100209.41;5016386;28;20049;-74
2022/05/23 11:51:12;;;;;;;6.82;1.25;;;;;;;18.37;33.05;100195.78;5016742;28;20125;-72
2022/05/23 11:53:52;;;;;;;4.38;1.60;;;;;;;18.38;32.77;100185.78;5015968;28;20050;-73
2022/05/23 11:56:33;;;;;;;5.70;1.20;;;;;;;18.09;32.70;100193.50;5015942;28;20132;-71
2022/05/23 11:59:00;;;;;;;7.00;1.45;;;;;;;18.25;32.84;100181.28;5015354;28;20053;-72
2022/05/23 12:01:30;;;;;;;4.53;1.40;;;;;;;18.49;32.52;100172.25;5015255;28;20132;-72
2022/05/23 12:03:57;;;;;;;3.90;1.27;;;;;;;18.47;33.14;100185.22;5015514;28;20054;-73
2022/05/23 12:06:24;;;;;;;6.78;1.58;;;;;;;18.19;32.59;100174.88;5015536;28;20067;-72
2022/05/23 12:09:25;;;;;;;3.92;1.33;;;;;;;18.48;32.68;100172.47;5015101;28;20050;-71
2022/05/23 12:12:12;;;;;;;4.28;1.10;;;;;;;18.68;32.04;100172.25;5015757;28;20053;-72
2022/05/23 12:14:38;;;;;;;4.78;1.40;;;;;;;18.54;32.41;100169.69;5014846;28;20144;-71
2022/05/23 12:17:10;;;;;;;4.10;1.60;;;;;;;18.66;31.41;100158.09;5016092;28;20481;-72
2022/05/23 12:19:40;;;;;;;4.25;1.33;;;;;;;18.52;32.24;100152.81;5015231;28;20111;-72
2022/05/23 12:22:26;;;;;;;4.80;1.15;;;;;;;18.52;32.53;100146.53;5015884;28;20050;-72
2022/05/23 12:25:08;;;;;;;6.68;1.30;;;;;;;18.32;32.38;100141.31;5010605;28;20548;-71
2022/05/23 12:27:39;;;;;;;;;;;;;;;18.20;31.53;100140.41;5015516;28;20089;-73
2022/05/23 12:30:20;;;;;;;2.87;1.10;;;;;;;18.42;31.72;100146.25;5014933;28;19921;-72
2022/05/23 12:33:16;;;;;;;4.25;1.92;;;;;;;18.71;32.20;100133.75;5015474;28;20050;-71
2022/05/23 12:35:54;;;;;;;7.10;1.50;;;;;;;18.70;32.55;100134.84;5000927;28;20093;-72
2022/05/23 12:38:41;;;;;;;3.00;1.27;;;;;;;18.74;32.02;100133.31;5014905;28;20050;-72
2022/05/23 12:41:19;;;;;;;5.82;1.55;;;;;;;18.06;32.57;100137.81;5014523;28;20124;-71
2022/05/23 12:44:07;;;;;;;4.53;1.15;;;;;;;18.30;32.63;100133.38;5014862;28;20082;-72
2022/05/23 12:46:37;;;;;;;6.00;1.40;;;;;;;18.31;33.10;100123.38;5014614;28;20049;-72